Hanamaulu, HI

3:41 PM HST on July 23, 2014 (GMT -1000)
Lihue (PHLI) Elev 102 ft | 21.98 °N, 159.34 °W | Change Station

Current weather conditions updated 48 minutes ago

Partly Cloudy
Partly Cloudy
84 °F
Feels Like 90 °F
N
14
Wind Variable Wind from ENE

Today is forecast to be nearly the same temperature as yesterday.

Today
High -- | Low -- °F
--% Chance of Precip.
Yesterday
High -- | Low -- °F
Precip. -- in
6:06 AM 7:21 PM
Waning Crescent, 7% visible
Pressure 30.06 in
Visibility 10.0 miles
Clouds Few 2500 ft
Heat Index 90 °F
Dew Point 72 °F
Humidity 67%
Rainfall 0.02 in
Snow Depth Not available.
UV 9 out of 12
Pollen Not available.
Air Quality Not available.
Flu Activity Not available.
METAR PHLI 240053Z 06012KT 10SM FEW025 29/22 A3006 RMK AO2 SLP177 T02890222 $

More Conditions Fewer Conditions

Pressure 30.06 in
Visibility 10.0 miles
Clouds Few 2500 ft
Heat Index 90 °F
Dew Point 72 °F
Humidity 67%
Rainfall 0.02 in
Snow Depth Not available.
UV 9 out of 12
Pollen Not available.
Air Quality Not available.
Flu Activity Not available.
METAR PHLI 240053Z 06012KT 10SM FEW025 29/22 A3006 RMK AO2 SLP177 T02890222 $

More Conditions Fewer Conditions

10-Day Weather Forecast

Almanac

Astronomy

Jul. 23, 2014 Rise Set
Actual Time 6:06 AM HST 7:21 PM HST
Civil Twilight 5:41 AM HST 7:45 PM HST
Nautical Twilight 5:13 AM HST 8:14 PM HST
Astronomical Twilight 4:43 AM HST 8:43 PM HST
Moon 3:32 AM HST (7/23) 5:01 PM HST (7/23)
Length of Visible Light 14h 03m
Length of Day
13h 15m
Tomorrow will be 0m 47s shorter.
Waning Crescent, 7% of the Moon is Illuminated
Today
Waning Crescent
Jul 26
New
Aug 3
First Quarter
Aug 10
Full
Aug 17
Last Quarter

Today's Extremes

State Highs State Lows

Community

WunderPhotos

Upload Photos

1,736,843 photos uploaded!

Nearby

Snow Depth

Station Depth Elevation
No new snow has been reported.

Earthquake Activity

City Distance Mag. Time & Date
No recent earthquake activity has been reported nearby.
Minimum magnitude displayed is 2.5.

Coastal Water Temperatures

Place Temperature
No Stations Reporting

Nearby Weather Stations

Station Location Temp. Heat Index Dew Point Humidity Wind Precip. Elev Updated Type
Lihue, Lihue, HI 82.7 °F 89 °F 74 °F 74% East  at  3.1 mph 0.00 in / hr 342 ft 2:46 PM HST Normal
Wailua, Kapaa, HI 81.5 °F 86 °F 72 °F 74% NE  at  6.0 mph 0.00 in / hr 355 ft 3:41 PM HST Rapid Fire
Koloa Landing - Whaler's Cove, Koloa, HI 83.7 °F 90 °F 72 °F 69% NE  at  9.8 mph 0.00 in / hr 25 ft 3:39 PM HST Rapid Fire
Kalihiwai Ridge, Kilauea, HI 81.0 °F 86 °F 73 °F 77% SSW  at  1.0 mph 0.00 in / hr 300 ft 3:41 PM HST Rapid Fire
Pooku, Princeville, HI 82.6 °F 88 °F 73 °F 72% SE  at  10.0 mph 0.00 in / hr 480 ft 3:41 PM HST Rapid Fire
Na Pali Properties on Kauai, Hanalei, HI 85.8 °F 90 °F 69 °F 57% SSE  at  4.0 mph 0.00 in / hr 36 ft 3:41 PM HST Rapid Fire
North Shore of Kauai, Princeville, HI 80.1 °F 84 °F 71 °F 74% ESE  at  7.8 mph 0.00 in / hr 200 ft 3:41 PM HST Rapid Fire

Show More Stations Show Fewer Stations